Terminal Aerodrome Forecast
Issued by NWS

Home | Current Version | Previous Version | Text Only | Print | Product List | Glossary On
Versions: 1 2 3 4 5 6 7 8 9 10 11 12 13 14 15 16
000
FTUS46 KMTR 280500
TAFSNS
TAF
KSNS 280531Z 2806/2906 29009KT 6SM BR OVC009
     FM281730 29006KT P6SM BKN012
     FM281800 29017G21KT P6SM FEW015
     FM290100 29009KT P6SM BKN009=

USA.gov is the U.S. government's official web portal to all federal, state and local government web resources and services.